Time;durP1;ratioP1;P1;durP2;ratioP2;P2;SDS_P1;SDS_P2;PMS_P1;PMS_P2;Temp;Humidity;BMP_temperature;BMP_pressure;BME280_temperature;BME280_humidity;BME280_pressure;Samples;Min_cycle;Max_cycle;Signal;HPM_P1;HPM_P2
2022/05/08 00:02:15;;;;;;;16.23;8.85;;;;;;;14.87;56.74;100793.63;4969200;28;101064;-80
2022/05/08 00:04:41;;;;;;;19.02;9.98;;;;;;;14.80;57.19;100789.50;4983237;28;101396;-80
2022/05/08 00:07:06;;;;;;;19.50;8.48;;;;;;;14.75;57.25;100784.44;4953538;28;97079;-79
2022/05/08 00:09:32;;;;;;;16.05;9.65;;;;;;;14.80;57.30;100781.56;4967882;28;97399;-79
2022/05/08 00:11:57;;;;;;;13.30;9.00;;;;;;;14.71;57.03;100757.28;4989367;28;101556;-79
2022/05/08 00:14:23;;;;;;;13.52;8.00;;;;;;;14.78;57.32;100791.38;4968346;28;101352;-79
2022/05/08 00:16:49;;;;;;;17.02;7.93;;;;;;;14.83;56.66;100771.72;4989902;28;97182;-79
2022/05/08 00:19:14;;;;;;;16.33;8.57;;;;;;;14.83;57.25;100792.88;4989881;28;97328;-79
2022/05/08 00:21:40;;;;;;;14.35;8.57;;;;;;;14.64;57.25;100762.91;4953097;28;101839;-80
2022/05/08 00:24:06;;;;;;;21.70;9.73;;;;;;;14.66;57.65;100783.06;4973619;28;101127;-76
2022/05/08 00:26:32;;;;;;;15.85;8.65;;;;;;;14.58;57.88;100777.25;4973626;28;98570;-80
2022/05/08 00:28:57;;;;;;;15.23;8.48;;;;;;;14.62;57.93;100773.53;4991990;28;97383;-80
2022/05/08 00:31:24;;;;;;;18.02;9.27;;;;;;;14.34;58.11;100752.72;4955822;28;101600;-79
2022/05/08 00:33:50;;;;;;;15.23;9.43;;;;;;;14.39;58.10;100777.13;4973697;28;97924;-80
2022/05/08 00:36:16;;;;;;;15.57;9.18;;;;;;;14.27;58.55;100775.00;4969756;28;96838;-80
2022/05/08 00:38:41;;;;;;;20.55;8.88;;;;;;;14.43;57.29;100757.59;4987472;28;97409;-78
2022/05/08 00:41:07;;;;;;;19.30;9.38;;;;;;;14.37;58.28;100760.50;4990116;28;97219;-76
2022/05/08 00:43:35;;;;;;;17.83;9.63;;;;;;;14.35;58.30;100774.69;4956218;28;101324;-80
2022/05/08 00:46:09;;;;;;;18.50;9.45;;;;;;;14.32;58.64;100778.31;4973380;28;96824;-79
2022/05/08 00:48:37;;;;;;;14.38;9.02;;;;;;;14.15;58.44;100759.69;4973362;28;96755;-79
2022/05/08 00:51:06;;;;;;;14.15;8.35;;;;;;;14.20;58.40;100787.63;4953048;28;101364;-79
2022/05/08 00:53:40;;;;;;;14.07;9.30;;;;;;;14.12;58.70;100775.66;4984952;28;99094;-82
2022/05/08 00:56:07;;;;;;;16.25;9.02;;;;;;;14.15;58.38;100772.91;4964265;28;97020;-80
2022/05/08 00:58:34;;;;;;;14.38;10.23;;;;;;;14.13;58.07;100783.50;4969688;28;97154;-77
2022/05/08 01:01:00;;;;;;;14.95;9.60;;;;;;;14.02;57.95;100772.53;4988946;28;97446;-80
2022/05/08 01:03:25;;;;;;;19.50;9.18;;;;;;;14.07;57.84;100775.84;4968704;28;101597;-79
2022/05/08 01:05:53;;;;;;;18.48;10.02;;;;;;;14.12;57.43;100783.59;4972255;28;96916;-80
2022/05/08 01:08:20;;;;;;;17.55;10.25;;;;;;;13.90;58.06;100762.47;4989001;28;97302;-79
2022/05/08 01:10:47;;;;;;;16.67;9.13;;;;;;;14.00;57.93;100782.31;4972449;28;99234;-80
2022/05/08 01:13:13;;;;;;;16.95;9.88;;;;;;;13.99;58.26;100783.22;4955200;28;101324;-79
2022/05/08 01:15:44;;;;;;;14.88;9.95;;;;;;;13.99;57.70;100778.81;4989276;28;97376;-79
2022/05/08 01:18:12;;;;;;;15.45;9.88;;;;;;;13.99;58.27;100778.81;4988945;28;97316;-77
2022/05/08 01:20:39;;;;;;;17.02;9.27;;;;;;;13.92;57.56;100755.38;4989852;28;98447;-82
2022/05/08 01:23:05;;;;;;;18.63;10.15;;;;;;;13.97;57.77;100778.00;4969832;28;97407;-80
2022/05/08 01:25:33;;;;;;;17.15;11.35;;;;;;;13.94;58.03;100779.91;4970214;28;97424;-81
2022/05/08 01:28:03;;;;;;;12.85;9.45;;;;;;;13.96;57.77;100781.59;4989225;28;97537;-79
2022/05/08 01:30:29;;;;;;;15.23;9.52;;;;;;;13.79;58.41;100761.16;4987740;28;97384;-80
2022/05/08 01:32:57;;;;;;;16.45;9.80;;;;;;;13.91;58.28;100775.63;4956027;28;100804;-79
2022/05/08 01:35:24;;;;;;;20.98;10.75;;;;;;;13.86;58.81;100782.00;4989995;28;98560;-80
2022/05/08 01:37:50;;;;;;;17.38;9.98;;;;;;;13.96;58.40;100778.94;4972473;28;96806;-79
2022/05/08 01:40:17;;;;;;;16.92;9.98;;;;;;;13.97;58.12;100777.16;4954892;28;101699;-79
2022/05/08 01:42:46;;;;;;;19.15;10.45;;;;;;;13.84;58.48;100773.28;4988619;28;97956;-79
2022/05/08 01:45:12;;;;;;;15.55;9.80;;;;;;;13.91;59.04;100796.75;4988267;28;96723;-79
2022/05/08 01:50:24;;;;;;;16.70;10.13;;;;;;;13.63;59.53;100789.03;4971218;28;101296;-78
2022/05/08 01:52:51;;;;;;;18.15;10.60;;;;;;;13.86;58.66;100789.91;4992243;28;97385;-79
2022/05/08 01:55:17;;;;;;;13.10;9.10;;;;;;;13.73;59.04;100771.94;4971360;28;96825;-80
2022/05/08 01:57:43;;;;;;;15.27;9.65;;;;;;;13.49;59.69;100746.53;4985331;28;97488;-82
2022/05/08 02:00:09;;;;;;;14.50;9.30;;;;;;;13.78;59.14;100788.44;4991826;28;97501;-80
2022/05/08 02:02:43;;;;;;;19.60;9.30;;;;;;;13.75;59.32;100787.69;4992344;28;98334;-79
2022/05/08 02:05:09;;;;;;;11.77;8.65;;;;;;;13.78;59.30;100790.22;4975196;28;98066;-82
2022/05/08 02:07:34;;;;;;;15.90;10.23;;;;;;;13.83;58.87;100793.53;4955691;28;96836;-81
2022/05/08 02:10:00;;;;;;;15.43;9.40;;;;;;;13.73;59.39;100793.06;4966284;28;101436;-81
2022/05/08 02:12:26;;;;;;;16.38;10.23;;;;;;;13.73;59.21;100769.31;4991596;28;97288;-81
2022/05/08 02:14:51;;;;;;;14.82;9.25;;;;;;;13.82;59.18;100795.31;4975217;28;96712;-83
2022/05/08 02:17:18;;;;;;;15.02;9.98;;;;;;;13.75;59.29;100799.09;4991981;28;97229;-82
2022/05/08 02:19:44;;;;;;;14.20;9.70;;;;;;;13.71;59.34;100799.31;4991442;28;98188;-82
2022/05/08 02:22:09;;;;;;;14.25;9.82;;;;;;;13.35;nan;100753.22;4971712;28;97549;-81
2022/05/08 02:24:35;;;;;;;15.75;10.00;;;;;;;13.59;59.38;100785.69;4973106;28;96901;-82
2022/05/08 02:27:01;;;;;;;16.13;10.90;;;;;;;13.61;58.96;100788.25;4975387;28;97254;-82
2022/05/08 02:29:26;;;;;;;20.65;10.90;;;;;;;13.57;59.55;100784.00;4974711;28;100691;-80
2022/05/08 02:31:52;;;;;;;20.05;9.80;;;;;;;13.48;59.33;100771.19;4991058;28;101084;-81
2022/05/08 02:34:17;;;;;;;19.83;11.57;;;;;;;13.59;59.32;100790.09;4974818;28;97257;-81
2022/05/08 02:36:43;;;;;;;13.23;9.80;;;;;;;13.64;59.41;100781.97;4992238;28;97441;-80
2022/05/08 02:39:08;;;;;;;16.55;10.88;;;;;;;13.56;59.48;100788.44;4991947;28;97621;-82
2022/05/08 02:41:34;;;;;;;16.58;11.30;;;;;;;13.53;59.42;100787.72;4957115;28;101129;-82
2022/05/08 02:44:00;;;;;;;14.93;11.20;;;;;;;13.42;59.32;100768.78;4992405;28;96615;-79
2022/05/08 02:46:25;;;;;;;14.27;11.15;;;;;;;13.49;59.57;100791.34;4954435;28;97714;-80
2022/05/08 02:48:51;;;;;;;20.63;11.95;;;;;;;13.44;59.60;100788.91;4975140;28;101394;-80
2022/05/08 02:51:16;;;;;;;17.98;10.57;;;;;;;13.46;60.01;100794.97;4990549;28;100940;-80
2022/05/08 02:53:42;;;;;;;18.48;11.27;;;;;;;13.34;60.18;100793.66;4969345;28;97216;-79
2022/05/08 02:58:52;;;;;;;14.95;10.40;;;;;;;13.39;59.82;100790.00;4978859;28;98016;-81
2022/05/08 03:01:17;;;;;;;19.95;11.60;;;;;;;13.41;60.03;100801.34;4990236;28;101323;-79
2022/05/08 03:03:43;;;;;;;15.70;10.95;;;;;;;13.29;60.01;100795.63;4989924;28;97444;-82
2022/05/08 03:06:08;;;;;;;18.85;10.93;;;;;;;13.14;60.48;100804.06;4974674;28;96837;-82
2022/05/08 03:08:34;;;;;;;16.48;10.45;;;;;;;13.23;60.20;100805.50;4990327;28;98038;-80
2022/05/08 03:13:44;;;;;;;15.60;11.07;;;;;;;13.31;59.75;100809.59;4965712;28;96788;-80
2022/05/08 03:16:11;;;;;;;18.70;11.63;;;;;;;13.34;59.71;100814.75;4991329;28;97262;-80
2022/05/08 03:18:39;;;;;;;15.50;10.35;;;;;;;13.07;60.02;100792.91;4990846;28;98349;-80
2022/05/08 03:21:05;;;;;;;17.52;10.43;;;;;;;13.00;60.21;100777.34;4990751;28;97969;-82
2022/05/08 03:23:31;;;;;;;17.52;9.95;;;;;;;13.21;60.30;100808.22;4956961;28;97461;-81
2022/05/08 03:25:57;;;;;;;22.20;11.30;;;;;;;13.14;60.48;100804.06;4958724;28;97321;-79
2022/05/08 03:28:22;;;;;;;17.27;11.80;;;;;;;13.13;60.61;100802.34;4991651;28;97404;-79
2022/05/08 03:30:48;;;;;;;19.10;11.25;;;;;;;13.08;60.77;100810.41;4991983;28;97563;-82
2022/05/08 03:33:14;;;;;;;18.75;11.00;;;;;;;12.91;60.70;100781.19;4953522;28;97255;-80
2022/05/08 03:35:40;;;;;;;18.00;11.07;;;;;;;13.03;60.72;100809.75;4976338;28;98017;-81
2022/05/08 03:38:07;;;;;;;15.38;10.77;;;;;;;13.07;61.05;100815.75;4990206;28;100716;-81
2022/05/08 03:40:34;;;;;;;15.80;11.75;;;;;;;13.06;60.59;100807.00;4973179;28;97545;-80
2022/05/08 03:43:00;;;;;;;19.77;11.48;;;;;;;12.85;61.50;100797.22;4991004;28;96595;-80
2022/05/08 03:45:26;;;;;;;17.42;11.45;;;;;;;12.93;61.57;100805.72;4990217;28;97626;-80
2022/05/08 03:47:52;;;;;;;17.75;10.52;;;;;;;13.13;60.20;100818.16;4974057;28;101291;-80
2022/05/08 03:50:19;;;;;;;17.67;11.32;;;;;;;13.05;60.12;100802.63;4990458;28;97873;-81
2022/05/08 03:52:44;;;;;;;18.98;11.02;;;;;;;13.19;60.34;100809.19;4970472;28;97057;-80
2022/05/08 03:55:11;;;;;;;16.77;11.32;;;;;;;13.31;60.02;100811.38;4987144;28;96995;-81
2022/05/08 03:57:37;;;;;;;18.58;10.82;;;;;;;13.44;59.92;100807.38;4972738;28;101237;-81
2022/05/08 04:00:04;;;;;;;20.60;11.00;;;;;;;13.31;60.29;100814.03;4990083;28;97992;-81
2022/05/08 04:02:38;;;;;;;16.85;10.80;;;;;;;13.15;60.28;100821.63;4987402;28;97121;-81
2022/05/08 04:05:05;;;;;;;17.55;10.57;;;;;;;13.29;60.44;100823.75;4989630;28;97243;-80
2022/05/08 04:07:31;;;;;;;18.35;10.50;;;;;;;13.33;60.14;100820.97;4989717;28;97505;-80
2022/05/08 04:09:56;;;;;;;15.57;10.57;;;;;;;13.28;59.37;100822.91;4953041;28;101548;-81
2022/05/08 04:12:23;;;;;;;17.30;10.13;;;;;;;13.46;59.54;100825.75;4953677;28;98015;-80
2022/05/08 04:14:49;;;;;;;17.30;10.07;;;;;;;13.30;60.02;100801.75;4968306;28;97225;-80
2022/05/08 04:17:16;;;;;;;18.50;11.35;;;;;;;13.53;59.33;100820.22;4980972;28;97343;-81
2022/05/08 04:19:43;;;;;;;18.48;11.20;;;;;;;13.60;59.18;100805.00;4970050;28;97979;-80
2022/05/08 04:24:53;;;;;;;18.63;11.55;;;;;;;14.17;57.38;100816.78;4980344;28;97028;-80
2022/05/08 04:27:22;;;;;;;16.05;10.60;;;;;;;14.47;55.87;100825.22;4970143;28;98237;-79
2022/05/08 04:29:47;;;;;;;22.00;10.57;;;;;;;14.23;56.78;100802.47;4972671;28;101715;-80
2022/05/08 04:32:13;;;;;;;20.48;10.10;;;;;;;14.43;56.94;100830.72;4973377;28;96709;-79
2022/05/08 04:34:38;;;;;;;18.17;10.00;;;;;;;14.67;56.27;100829.69;4989697;28;96974;-80
2022/05/08 04:37:04;;;;;;;19.33;10.13;;;;;;;14.73;56.06;100835.63;4989716;28;97658;-80
2022/05/08 04:39:30;;;;;;;20.27;10.80;;;;;;;14.84;56.49;100833.38;4989449;28;97969;-81
2022/05/08 04:41:55;;;;;;;16.13;10.02;;;;;;;15.05;55.76;100821.84;4959620;28;97168;-80
2022/05/08 04:44:21;;;;;;;17.27;9.95;;;;;;;15.22;55.65;100825.53;4991130;28;98348;-81
2022/05/08 04:46:47;;;;;;;19.13;9.70;;;;;;;15.53;55.10;100844.38;4953109;28;101779;-80
2022/05/08 04:49:13;;;;;;;17.83;9.25;;;;;;;15.75;54.00;100851.34;4972701;28;101353;-81
2022/05/08 04:51:38;;;;;;;16.08;9.32;;;;;;;16.06;53.73;100842.78;4990038;28;97088;-81
2022/05/08 04:54:04;;;;;;;16.50;9.38;;;;;;;16.11;52.45;100837.25;4980788;28;97368;-80
2022/05/08 04:56:30;;;;;;;15.43;9.27;;;;;;;16.22;52.49;100845.53;4953287;28;101092;-81
2022/05/08 04:58:56;;;;;;;15.60;8.43;;;;;;;16.64;51.97;100845.19;4989242;28;97939;-81
2022/05/08 05:01:22;;;;;;;12.98;8.55;;;;;;;16.91;50.87;100829.69;4972078;28;97186;-80
2022/05/08 05:03:49;;;;;;;16.00;8.60;;;;;;;17.14;50.19;100831.13;4989455;28;96858;-80
2022/05/08 05:06:14;;;;;;;14.75;9.25;;;;;;;17.36;50.05;100845.88;4972543;28;98205;-80
2022/05/08 05:08:40;;;;;;;14.40;8.70;;;;;;;17.39;49.87;100846.59;4988800;28;97246;-79
2022/05/08 05:11:08;;;;;;;16.55;9.23;;;;;;;17.64;50.09;100856.69;4988823;28;98173;-80
2022/05/08 05:13:34;;;;;;;16.55;7.65;;;;;;;17.65;49.42;100842.47;4988427;28;96878;-80
2022/05/08 05:16:00;;;;;;;12.07;8.45;;;;;;;18.02;49.05;100860.84;4989522;28;98227;-81
2022/05/08 05:18:25;;;;;;;15.70;8.73;;;;;;;18.32;48.39;100832.53;4988829;28;98223;-80
2022/05/08 05:20:51;;;;;;;14.05;8.48;;;;;;;18.95;47.45;100858.06;4970326;28;96767;-78
2022/05/08 05:23:16;;;;;;;13.70;7.45;;;;;;;19.45;46.54;100846.09;4955912;28;97794;-77
2022/05/08 05:25:42;;;;;;;13.68;7.18;;;;;;;19.96;45.33;100855.41;4971725;28;97648;-80
2022/05/08 05:28:07;;;;;;;14.13;7.10;;;;;;;20.89;44.04;100848.31;4989215;28;97769;-79
2022/05/08 05:30:33;;;;;;;8.60;7.40;;;;;;;21.71;41.91;100855.00;4988503;28;97066;-81
2022/05/08 05:32:58;;;;;;;12.32;7.15;;;;;;;22.88;39.75;100855.19;4972706;28;96764;-80
2022/05/08 05:35:24;;;;;;;9.43;7.55;;;;;;;23.84;37.86;100859.28;4987748;28;97509;-80
2022/05/08 05:37:49;;;;;;;10.73;7.60;;;;;;;24.60;36.69;100858.31;4971978;28;98018;-80
2022/05/08 05:40:15;;;;;;;11.30;7.25;;;;;;;25.36;35.75;100849.16;4988837;28;96749;-80
2022/05/08 05:42:40;;;;;;;10.95;7.20;;;;;;;26.49;34.18;100854.22;4972257;28;97450;-81
2022/05/08 05:45:06;;;;;;;10.18;6.72;;;;;;;26.64;32.97;100853.66;4971778;28;97641;-80
2022/05/08 05:47:50;;;;;;;10.48;6.95;;;;;;;26.99;32.40;100833.31;4971581;28;101060;-82
2022/05/08 05:50:23;;;;;;;8.02;5.97;;;;;;;28.12;30.89;100831.38;4971250;28;96774;-80
2022/05/08 05:52:49;;;;;;;10.07;6.65;;;;;;;28.61;29.86;100842.66;4969314;28;97234;-80
2022/05/08 05:55:15;;;;;;;8.95;6.05;;;;;;;28.84;29.61;100834.88;4997611;28;100980;-80
2022/05/08 05:57:41;;;;;;;8.00;6.07;;;;;;;29.47;29.00;100836.47;4964257;28;100902;-80
2022/05/08 06:00:11;;;;;;;8.63;6.75;;;;;;;30.17;28.51;100847.00;4988331;28;96643;-80
2022/05/08 06:02:39;;;;;;;8.68;6.40;;;;;;;30.92;27.58;100852.25;4988876;28;98476;-80
2022/05/08 06:05:06;;;;;;;7.15;5.45;;;;;;;31.23;26.94;100844.22;4987537;28;98500;-80
2022/05/08 06:07:36;;;;;;;9.07;5.30;;;;;;;31.60;26.65;100852.78;4967687;28;103821;-80
2022/05/08 06:10:06;;;;;;;;;;;;;;;30.89;26.96;100849.91;4988401;28;97344;-81
2022/05/08 06:12:32;;;;;;;8.15;5.45;;;;;;;31.69;26.38;100851.72;4954966;28;96871;-81
2022/05/08 06:14:58;;;;;;;6.60;5.03;;;;;;;32.68;25.29;100831.03;4971103;28;101590;-80
2022/05/08 06:17:23;;;;;;;7.97;5.63;;;;;;;32.94;24.93;100840.63;4971467;28;101392;-80
2022/05/08 06:19:49;;;;;;;7.80;5.15;;;;;;;32.69;25.31;100843.56;4986279;28;98560;-81
2022/05/08 06:22:14;;;;;;;10.88;5.90;;;;;;;32.02;25.85;100841.53;4986495;28;96972;-82
2022/05/08 06:24:40;;;;;;;7.22;5.35;;;;;;;32.56;25.46;100844.22;4964787;28;101583;-81
2022/05/08 06:27:06;;;;;;;7.43;5.03;;;;;;;33.00;24.80;100827.16;4966648;28;98495;-81
2022/05/08 06:29:32;;;;;;;6.50;5.30;;;;;;;33.42;24.29;100854.72;4981303;28;97617;-81
2022/05/08 06:31:58;;;;;;;8.93;5.40;;;;;;;33.74;23.64;100829.81;4958843;28;98498;-81
2022/05/08 06:34:24;;;;;;;6.88;5.03;;;;;;;33.77;24.29;100862.13;4984850;28;101295;-80
2022/05/08 06:36:50;;;;;;;7.53;5.20;;;;;;;33.57;23.94;100864.59;4987042;28;97403;-81
2022/05/08 06:39:15;;;;;;;9.52;5.40;;;;;;;33.95;23.89;100855.41;4980292;28;97488;-81
2022/05/08 06:41:41;;;;;;;7.28;5.15;;;;;;;34.56;23.14;100855.88;4973134;28;97633;-81
2022/05/08 06:44:07;;;;;;;6.97;4.82;;;;;;;34.28;24.12;100860.41;4988313;28;97719;-80
2022/05/08 06:46:35;;;;;;;6.75;5.35;;;;;;;35.43;23.30;100861.91;4988924;28;98530;-81
2022/05/08 06:49:05;;;;;;;6.22;4.90;;;;;;;35.88;22.43;100865.91;4989108;28;96871;-80
2022/05/08 06:51:31;;;;;;;6.47;5.35;;;;;;;35.83;22.36;100868.41;4988587;28;97375;-81
2022/05/08 06:53:57;;;;;;;7.72;4.97;;;;;;;35.85;22.33;100863.59;4980062;28;97529;-80
2022/05/08 06:56:22;;;;;;;6.05;5.10;;;;;;;36.38;21.88;100863.72;4992674;28;98554;-92
2022/05/08 07:01:35;;;;;;;6.78;5.28;;;;;;;36.02;22.37;100864.06;4977918;28;97169;-94
2022/05/08 07:04:02;;;;;;;5.47;4.75;;;;;;;35.63;22.31;100853.84;4977905;28;101589;-85
2022/05/08 07:06:28;;;;;;;6.10;5.07;;;;;;;36.70;21.63;100858.50;4988066;28;97851;-87
2022/05/08 07:08:54;;;;;;;7.05;4.63;;;;;;;36.91;21.43;100843.75;4960434;28;96744;-88
2022/05/08 07:11:19;;;;;;;6.45;5.28;;;;;;;37.44;20.89;100853.75;4991819;28;96945;-86
2022/05/08 07:13:45;;;;;;;7.43;5.05;;;;;;;37.19;21.39;100857.22;4974552;28;100203;-89
2022/05/08 07:16:10;;;;;;;5.10;4.60;;;;;;;37.45;21.23;100859.03;4975123;28;100642;-87
2022/05/08 07:18:36;;;;;;;7.22;5.10;;;;;;;37.81;20.95;100858.44;4969318;28;96912;-85
2022/05/08 07:21:01;;;;;;;7.32;5.13;;;;;;;37.89;20.80;100856.53;4988572;28;97154;-86
2022/05/08 07:23:27;;;;;;;7.40;5.38;;;;;;;37.62;21.18;100850.38;4970556;28;98466;-93
2022/05/08 07:25:52;;;;;;;6.88;4.90;;;;;;;38.62;20.23;100861.56;4991275;28;101836;-85
2022/05/08 07:28:18;;;;;;;7.00;6.10;;;;;;;38.56;20.32;100856.97;4959415;28;96846;-92
2022/05/08 07:30:44;;;;;;;7.60;4.88;;;;;;;38.53;20.26;100830.00;4973732;28;96861;-89
2022/05/08 07:33:09;;;;;;;5.80;5.03;;;;;;;38.89;19.95;100848.44;4990345;28;98283;-87
2022/05/08 07:38:21;;;;;;;6.25;4.43;;;;;;;39.03;19.55;100855.47;4991397;28;96931;-96
2022/05/08 07:40:50;;;;;;;7.27;4.77;;;;;;;38.84;19.57;100848.28;4987667;28;97338;-94
2022/05/08 07:43:16;;;;;;;;;;;;;;;38.42;20.47;100853.50;4987880;28;97390;-94
2022/05/08 07:45:45;;;;;;;7.05;4.78;;;;;;;38.56;19.70;100862.44;4991173;28;99808;-88
2022/05/08 07:48:10;;;;;;;5.65;5.05;;;;;;;38.60;19.87;100858.19;4971174;28;98691;-84
2022/05/08 07:50:36;;;;;;;4.82;4.10;;;;;;;39.30;20.14;100853.34;4985489;28;97368;-83
2022/05/08 07:53:02;;;;;;;8.05;4.55;;;;;;;39.42;19.51;100863.50;4987205;28;102286;-93
2022/05/08 07:55:28;;;;;;;4.97;4.22;;;;;;;39.48;18.93;100838.75;4982874;28;101384;-92
2022/05/08 07:57:53;;;;;;;6.35;4.50;;;;;;;39.86;18.92;100865.09;4975654;28;96850;-87
2022/05/08 08:00:19;;;;;;;6.30;4.55;;;;;;;39.87;19.06;100861.28;5007158;28;98358;-93
2022/05/08 08:02:45;;;;;;;4.65;4.15;;;;;;;40.26;18.79;100846.13;4982850;28;97731;-94
2022/05/08 08:05:10;;;;;;;6.05;3.85;;;;;;;40.26;18.94;100851.63;4978914;28;97398;-88
2022/05/08 08:07:36;;;;;;;5.03;4.35;;;;;;;39.64;18.78;100858.41;4969319;28;97740;-91
2022/05/08 08:10:03;;;;;;;7.60;4.22;;;;;;;39.27;19.69;100855.63;4972759;28;97317;-93
2022/05/08 08:12:30;;;;;;;5.65;3.90;;;;;;;39.10;19.72;100844.44;4984802;28;98521;-88
2022/05/08 08:14:56;;;;;;;4.97;3.55;;;;;;;39.69;19.31;100858.53;4978816;28;98152;-89
2022/05/08 08:17:22;;;;;;;6.38;3.95;;;;;;;40.19;18.72;100863.81;4988572;28;96714;-83
2022/05/08 08:19:48;;;;;;;5.38;3.92;;;;;;;40.02;18.66;100861.69;4978518;28;97694;-89
2022/05/08 08:22:13;;;;;;;4.93;4.00;;;;;;;39.87;18.25;100864.03;4946574;28;101329;-87
2022/05/08 08:24:40;;;;;;;5.65;3.90;;;;;;;40.01;18.94;100870.19;4971550;28;98168;-87
2022/05/08 08:27:07;;;;;;;5.78;4.43;;;;;;;40.10;18.55;100848.69;4985496;28;98523;-88
2022/05/08 08:29:33;;;;;;;4.82;4.10;;;;;;;39.06;19.02;100862.41;4974918;28;97333;-90
2022/05/08 08:31:59;;;;;;;6.13;4.10;;;;;;;39.30;19.06;100850.59;4980612;28;100766;-95
2022/05/08 08:34:26;;;;;;;7.32;3.67;;;;;;;39.77;18.85;100856.34;4982790;28;98468;-91
2022/05/08 08:36:52;;;;;;;6.60;4.25;;;;;;;38.21;20.12;100868.38;4976753;28;96877;-91
2022/05/08 08:39:18;;;;;;;4.43;3.70;;;;;;;38.74;19.89;100862.50;4987713;28;96899;-82
2022/05/08 08:41:50;;;;;;;4.43;3.70;;;;;;;39.61;19.16;100860.53;4972773;28;100962;-81
2022/05/08 08:49:51;;;;;;;6.43;3.30;;;;;;;39.35;19.65;100877.34;4973390;28;96915;-81
2022/05/08 08:52:17;;;;;;;6.53;4.18;;;;;;;39.44;19.40;100878.69;4984099;28;101278;-82
2022/05/08 08:54:43;;;;;;;5.07;3.50;;;;;;;39.43;19.43;100859.72;4974650;28;98370;-81
2022/05/08 08:57:08;;;;;;;7.22;4.70;;;;;;;39.69;19.51;100867.63;4988000;28;96895;-82
2022/05/08 08:59:34;;;;;;;4.35;3.65;;;;;;;39.64;19.36;100881.19;4972923;28;96802;-81
2022/05/08 09:01:59;;;;;;;6.03;3.85;;;;;;;40.18;19.29;100871.22;4981449;28;98338;-81
2022/05/08 09:04:25;;;;;;;8.43;3.83;;;;;;;39.83;19.35;100880.13;4970857;28;97380;-82
2022/05/08 09:06:50;;;;;;;5.03;3.38;;;;;;;40.32;19.35;100885.59;4978219;28;97155;-82
2022/05/08 09:09:31;;;;;;;4.85;4.03;;;;;;;40.09;18.97;100882.72;4975022;28;96731;-81
2022/05/08 09:11:57;;;;;;;6.43;3.80;;;;;;;39.96;19.04;100876.34;4992938;28;98190;-88
2022/05/08 09:14:29;;;;;;;9.48;4.05;;;;;;;39.62;19.19;100886.06;4958918;28;100752;-86
2022/05/08 09:16:54;;;;;;;9.95;4.88;;;;;;;38.41;19.78;100880.06;4974719;28;96920;-85
2022/05/08 09:19:32;;;;;;;5.45;4.28;;;;;;;38.77;19.88;100875.75;4990947;28;96894;-82
2022/05/08 09:22:00;;;;;;;6.72;4.28;;;;;;;38.89;19.88;100879.47;4974858;28;101550;-82
2022/05/08 09:24:25;;;;;;;5.50;4.55;;;;;;;37.87;21.24;100864.13;4958291;28;101595;-86
2022/05/08 09:27:11;;;;;;;7.20;4.40;;;;;;;37.35;21.49;100872.31;4975524;28;96650;-85
2022/05/08 09:29:37;;;;;;;7.45;4.30;;;;;;;36.91;21.69;100880.16;4976514;28;96969;-90
2022/05/08 09:32:03;;;;;;;7.22;3.83;;;;;;;36.50;21.77;100880.34;4973213;28;98406;-90
2022/05/08 09:34:28;;;;;;;6.47;4.03;;;;;;;36.70;21.05;100875.75;4971980;28;101388;-90
2022/05/08 09:37:07;;;;;;;6.97;3.50;;;;;;;36.08;21.27;100881.56;4969467;28;96917;-90
2022/05/08 09:39:32;;;;;;;4.75;3.40;;;;;;;35.91;21.99;100886.53;4993833;28;96879;-90
2022/05/08 09:41:58;;;;;;;4.63;2.95;;;;;;;35.92;21.44;100880.00;4972235;28;98145;-89
2022/05/08 09:44:23;;;;;;;7.05;3.47;;;;;;;36.10;20.84;100853.00;4991682;28;100842;-90
2022/05/08 09:46:49;;;;;;;7.78;2.97;;;;;;;36.23;21.23;100871.28;4960686;28;96651;-90
2022/05/08 09:49:19;;;;;;;3.97;2.70;;;;;;;36.09;21.63;100864.94;4993493;28;96619;-92
2022/05/08 09:51:46;;;;;;;4.60;2.97;;;;;;;35.41;21.95;100875.78;4975945;28;101537;-90
2022/05/08 09:54:14;;;;;;;6.07;3.72;;;;;;;35.28;22.91;100867.50;4976098;28;101609;-91
2022/05/08 09:56:42;;;;;;;4.78;3.33;;;;;;;35.03;23.28;100867.97;4974942;28;96675;-91
2022/05/08 09:59:14;;;;;;;4.03;3.47;;;;;;;33.22;25.34;100868.91;4974306;28;97087;-91
2022/05/08 10:01:41;;;;;;;7.25;3.78;;;;;;;33.94;24.54;100873.63;4972631;28;97612;-91
2022/05/08 10:04:07;;;;;;;8.45;4.22;;;;;;;34.25;23.66;100851.56;4975711;28;97988;-90
2022/05/08 10:06:36;;;;;;;6.43;4.53;;;;;;;34.36;24.37;100882.06;4974944;28;97241;-90
2022/05/08 10:14:33;;;;;;;6.30;3.80;;;;;;;32.65;25.91;100885.75;4981664;28;99651;-91
2022/05/08 10:17:08;;;;;;;4.57;3.80;;;;;;;32.37;25.73;100875.41;4964752;28;96644;-91
2022/05/08 10:19:33;;;;;;;5.45;3.83;;;;;;;32.27;26.09;100865.81;4975048;28;96900;-91
2022/05/08 10:22:13;;;;;;;7.90;3.58;;;;;;;32.29;26.42;100874.59;4979346;28;101371;-91
2022/05/08 10:24:54;;;;;;;5.05;3.30;;;;;;;31.75;26.97;100862.69;4996184;28;101288;-91
2022/05/08 10:27:28;;;;;;;6.63;3.80;;;;;;;31.32;27.03;100880.31;4977312;28;96621;-92
2022/05/08 10:29:54;;;;;;;7.18;4.13;;;;;;;30.61;27.07;100873.78;4979331;28;96721;-91
2022/05/08 10:32:35;;;;;;;5.80;3.42;;;;;;;30.31;28.20;100883.41;4995167;28;101786;-91
2022/05/08 10:35:10;;;;;;;4.78;3.25;;;;;;;30.29;28.99;100861.91;4995963;28;97495;-90
2022/05/08 10:37:39;;;;;;;8.88;3.70;;;;;;;29.96;27.64;100878.09;4995619;28;96956;-91
2022/05/08 10:40:25;;;;;;;6.47;3.88;;;;;;;29.21;28.89;100871.63;4975512;28;96759;-90
2022/05/08 10:42:54;;;;;;;7.70;4.13;;;;;;;28.91;29.44;100864.81;4983866;28;101565;-90
2022/05/08 10:45:32;;;;;;;8.30;3.83;;;;;;;29.01;30.17;100862.88;4961768;28;101281;-90
2022/05/08 10:48:17;;;;;;;8.52;4.13;;;;;;;29.16;30.27;100871.25;4979297;28;96651;-90
2022/05/08 10:50:47;;;;;;;9.05;3.70;;;;;;;29.22;30.08;100876.88;4962584;28;96950;-90
2022/05/08 10:53:33;;;;;;;6.55;3.35;;;;;;;29.30;30.66;100878.78;4975320;28;101409;-90
2022/05/08 10:56:10;;;;;;;3.78;3.40;;;;;;;29.29;30.67;100877.06;4975388;28;101918;-90
2022/05/08 10:58:42;;;;;;;5.65;3.42;;;;;;;29.21;30.54;100863.53;4992027;28;97478;-90
2022/05/08 11:01:09;;;;;;;5.05;4.55;;;;;;;28.65;30.88;100861.09;4983336;28;96838;-91
2022/05/08 11:03:35;;;;;;;5.47;3.50;;;;;;;28.58;31.37;100864.56;4994090;28;98651;-91
2022/05/08 11:06:03;;;;;;;4.40;3.13;;;;;;;28.66;31.76;100873.59;4978780;28;100671;-89
2022/05/08 11:08:31;;;;;;;6.93;3.55;;;;;;;28.83;31.79;100869.16;4995336;28;96758;-91
2022/05/08 11:11:02;;;;;;;5.32;3.30;;;;;;;28.91;31.28;100876.47;4995453;28;97164;-91
2022/05/08 11:13:45;;;;;;;7.80;3.33;;;;;;;28.75;31.67;100860.16;4995783;28;98238;-92
2022/05/08 11:16:12;;;;;;;6.38;3.30;;;;;;;28.79;31.51;100872.31;4979071;28;97274;-91
2022/05/08 11:18:39;;;;;;;6.88;3.40;;;;;;;28.81;31.61;100864.91;4995210;28;96772;-91
2022/05/08 11:21:08;;;;;;;3.50;3.00;;;;;;;28.73;31.87;100864.84;4973720;28;97040;-89
2022/05/08 11:23:44;;;;;;;4.88;3.38;;;;;;;28.58;32.29;100848.38;4993299;28;98494;-91
2022/05/08 11:26:10;;;;;;;7.03;3.15;;;;;;;28.47;31.64;100868.34;4979027;28;98507;-92
2022/05/08 11:28:46;;;;;;;4.13;2.97;;;;;;;28.42;32.00;100849.94;4975380;28;96991;-92
2022/05/08 11:31:16;;;;;;;6.35;3.28;;;;;;;28.32;31.89;100865.31;4997006;28;96931;-90
2022/05/08 11:36:34;;;;;;;4.32;3.15;;;;;;;27.88;32.37;100872.47;4977462;28;100194;-90
2022/05/08 11:39:10;;;;;;;4.07;3.03;;;;;;;27.65;32.77;100861.19;4992788;28;96674;-92
2022/05/08 11:41:44;;;;;;;4.20;3.13;;;;;;;27.84;32.64;100863.81;4988531;28;96800;-91
2022/05/08 11:44:15;;;;;;;6.80;3.28;;;;;;;28.03;32.73;100864.69;4988141;28;97154;-92
2022/05/08 11:46:45;;;;;;;3.25;2.85;;;;;;;28.12;33.21;100855.69;5006115;28;97826;-92
2022/05/08 11:49:30;;;;;;;6.05;3.10;;;;;;;28.47;33.37;100862.09;4984910;28;96622;-91
2022/05/08 11:52:01;;;;;;;6.85;3.75;;;;;;;28.31;32.69;100871.72;4986289;28;96921;-91